sensor_id;sensor_type;location;lat;lon;timestamp;P1;durP1;ratioP1;P2;durP2;ratioP2
3795;SDS011;1913;50.660;7.834;2023-01-05T00:01:29;15.60;;;3.50;;
3795;SDS011;1913;50.660;7.834;2023-01-05T00:03:55;15.03;;;3.70;;
3795;SDS011;1913;50.660;7.834;2023-01-05T00:06:20;15.60;;;3.20;;
3795;SDS011;1913;50.660;7.834;2023-01-05T00:08:46;15.70;;;3.23;;
3795;SDS011;1913;50.660;7.834;2023-01-05T00:11:13;12.80;;;3.37;;
3795;SDS011;1913;50.660;7.834;2023-01-05T00:14:05;15.23;;;3.43;;
3795;SDS011;1913;50.660;7.834;2023-01-05T00:16:53;18.80;;;4.03;;
3795;SDS011;1913;50.660;7.834;2023-01-05T00:19:36;13.83;;;2.90;;
3795;SDS011;1913;50.660;7.834;2023-01-05T00:22:22;17.50;;;3.00;;
3795;SDS011;1913;50.660;7.834;2023-01-05T00:27:31;17.40;;;3.60;;
3795;SDS011;1913;50.660;7.834;2023-01-05T00:29:57;16.50;;;3.40;;
3795;SDS011;1913;50.660;7.834;2023-01-05T00:32:23;13.33;;;3.30;;
3795;SDS011;1913;50.660;7.834;2023-01-05T00:34:50;15.50;;;3.73;;
3795;SDS011;1913;50.660;7.834;2023-01-05T00:37:19;14.70;;;3.40;;
3795;SDS011;1913;50.660;7.834;2023-01-05T00:39:49;13.30;;;3.43;;
3795;SDS011;1913;50.660;7.834;2023-01-05T00:42:15;17.23;;;3.47;;
3795;SDS011;1913;50.660;7.834;2023-01-05T00:44:40;23.10;;;3.50;;
3795;SDS011;1913;50.660;7.834;2023-01-05T00:47:06;13.03;;;3.20;;
3795;SDS011;1913;50.660;7.834;2023-01-05T00:49:32;14.27;;;3.60;;
3795;SDS011;1913;50.660;7.834;2023-01-05T00:51:57;14.70;;;3.23;;
3795;SDS011;1913;50.660;7.834;2023-01-05T00:54:22;16.00;;;3.50;;
3795;SDS011;1913;50.660;7.834;2023-01-05T00:56:48;15.73;;;3.57;;
3795;SDS011;1913;50.660;7.834;2023-01-05T00:59:14;17.07;;;3.53;;
3795;SDS011;1913;50.660;7.834;2023-01-05T01:01:40;19.60;;;4.20;;
3795;SDS011;1913;50.660;7.834;2023-01-05T01:04:08;17.47;;;3.67;;
3795;SDS011;1913;50.660;7.834;2023-01-05T01:06:34;11.07;;;3.43;;
3795;SDS011;1913;50.660;7.834;2023-01-05T01:08:59;9.63;;;3.23;;
3795;SDS011;1913;50.660;7.834;2023-01-05T01:11:24;20.70;;;3.50;;
3795;SDS011;1913;50.660;7.834;2023-01-05T01:13:50;16.77;;;3.40;;
3795;SDS011;1913;50.660;7.834;2023-01-05T01:16:15;14.27;;;3.37;;
3795;SDS011;1913;50.660;7.834;2023-01-05T01:18:41;18.23;;;3.13;;
3795;SDS011;1913;50.660;7.834;2023-01-05T01:21:06;21.07;;;3.73;;
3795;SDS011;1913;50.660;7.834;2023-01-05T01:23:32;20.67;;;3.50;;
3795;SDS011;1913;50.660;7.834;2023-01-05T01:26:02;25.67;;;4.10;;
3795;SDS011;1913;50.660;7.834;2023-01-05T01:28:29;11.33;;;3.03;;
3795;SDS011;1913;50.660;7.834;2023-01-05T01:30:55;20.10;;;3.50;;
3795;SDS011;1913;50.660;7.834;2023-01-05T01:33:21;14.23;;;3.30;;
3795;SDS011;1913;50.660;7.834;2023-01-05T01:35:46;15.50;;;3.43;;
3795;SDS011;1913;50.660;7.834;2023-01-05T01:38:12;19.17;;;3.57;;
3795;SDS011;1913;50.660;7.834;2023-01-05T01:40:41;19.30;;;3.90;;
3795;SDS011;1913;50.660;7.834;2023-01-05T01:43:12;17.63;;;4.67;;
3795;SDS011;1913;50.660;7.834;2023-01-05T01:45:58;21.23;;;4.30;;
3795;SDS011;1913;50.660;7.834;2023-01-05T01:48:23;18.40;;;3.80;;
3795;SDS011;1913;50.660;7.834;2023-01-05T01:50:50;24.80;;;3.90;;
3795;SDS011;1913;50.660;7.834;2023-01-05T01:53:31;20.80;;;4.10;;
3795;SDS011;1913;50.660;7.834;2023-01-05T01:56:02;17.17;;;4.00;;
3795;SDS011;1913;50.660;7.834;2023-01-05T01:58:30;31.23;;;4.87;;
3795;SDS011;1913;50.660;7.834;2023-01-05T02:00:57;17.90;;;4.30;;
3795;SDS011;1913;50.660;7.834;2023-01-05T02:03:25;16.43;;;4.33;;
3795;SDS011;1913;50.660;7.834;2023-01-05T02:05:52;18.13;;;3.97;;
3795;SDS011;1913;50.660;7.834;2023-01-05T02:08:18;17.73;;;4.30;;
3795;SDS011;1913;50.660;7.834;2023-01-05T02:16:23;26.37;;;3.90;;
3795;SDS011;1913;50.660;7.834;2023-01-05T02:23:59;26.87;;;3.80;;
3795;SDS011;1913;50.660;7.834;2023-01-05T02:31:52;18.50;;;3.83;;
3795;SDS011;1913;50.660;7.834;2023-01-05T02:34:32;25.30;;;3.70;;
3795;SDS011;1913;50.660;7.834;2023-01-05T02:37:07;13.37;;;4.00;;
3795;SDS011;1913;50.660;7.834;2023-01-05T02:42:23;27.60;;;4.20;;
3795;SDS011;1913;50.660;7.834;2023-01-05T02:44:51;18.47;;;3.90;;
3795;SDS011;1913;50.660;7.834;2023-01-05T02:52:31;18.33;;;4.10;;
3795;SDS011;1913;50.660;7.834;2023-01-05T02:55:13;17.03;;;3.40;;
3795;SDS011;1913;50.660;7.834;2023-01-05T02:57:46;15.77;;;3.33;;
3795;SDS011;1913;50.660;7.834;2023-01-05T03:03:00;17.70;;;3.60;;
3795;SDS011;1913;50.660;7.834;2023-01-05T03:05:36;20.33;;;3.50;;
3795;SDS011;1913;50.660;7.834;2023-01-05T03:08:08;21.57;;;4.13;;
3795;SDS011;1913;50.660;7.834;2023-01-05T03:13:58;18.80;;;4.23;;
3795;SDS011;1913;50.660;7.834;2023-01-05T03:16:33;27.20;;;4.37;;
3795;SDS011;1913;50.660;7.834;2023-01-05T03:19:01;24.47;;;4.30;;
3795;SDS011;1913;50.660;7.834;2023-01-05T03:21:48;21.70;;;4.47;;
3795;SDS011;1913;50.660;7.834;2023-01-05T03:24:34;20.40;;;4.77;;
3795;SDS011;1913;50.660;7.834;2023-01-05T03:27:20;18.63;;;3.80;;
3795;SDS011;1913;50.660;7.834;2023-01-05T03:30:06;20.60;;;4.00;;
3795;SDS011;1913;50.660;7.834;2023-01-05T03:32:51;18.93;;;3.63;;
3795;SDS011;1913;50.660;7.834;2023-01-05T03:35:43;21.63;;;4.00;;
3795;SDS011;1913;50.660;7.834;2023-01-05T03:40:49;20.53;;;4.47;;
3795;SDS011;1913;50.660;7.834;2023-01-05T03:43:16;31.60;;;5.03;;
3795;SDS011;1913;50.660;7.834;2023-01-05T03:45:43;29.30;;;4.80;;
3795;SDS011;1913;50.660;7.834;2023-01-05T03:48:14;21.17;;;4.47;;
3795;SDS011;1913;50.660;7.834;2023-01-05T03:50:40;24.73;;;4.80;;
3795;SDS011;1913;50.660;7.834;2023-01-05T03:53:05;26.60;;;4.90;;
3795;SDS011;1913;50.660;7.834;2023-01-05T03:55:32;31.67;;;5.10;;
3795;SDS011;1913;50.660;7.834;2023-01-05T03:57:57;28.50;;;4.53;;
3795;SDS011;1913;50.660;7.834;2023-01-05T04:00:23;21.33;;;4.73;;
3795;SDS011;1913;50.660;7.834;2023-01-05T04:02:50;28.97;;;5.10;;
3795;SDS011;1913;50.660;7.834;2023-01-05T04:05:15;35.03;;;5.77;;
3795;SDS011;1913;50.660;7.834;2023-01-05T04:07:41;24.43;;;4.67;;
3795;SDS011;1913;50.660;7.834;2023-01-05T04:10:06;34.13;;;5.53;;
3795;SDS011;1913;50.660;7.834;2023-01-05T04:12:32;29.47;;;4.10;;
3795;SDS011;1913;50.660;7.834;2023-01-05T04:14:58;25.20;;;4.27;;
3795;SDS011;1913;50.660;7.834;2023-01-05T04:17:23;24.23;;;4.30;;
3795;SDS011;1913;50.660;7.834;2023-01-05T04:19:48;27.07;;;4.33;;
3795;SDS011;1913;50.660;7.834;2023-01-05T04:22:14;16.87;;;4.80;;
3795;SDS011;1913;50.660;7.834;2023-01-05T04:24:39;31.60;;;4.97;;
3795;SDS011;1913;50.660;7.834;2023-01-05T04:27:05;23.27;;;4.63;;
3795;SDS011;1913;50.660;7.834;2023-01-05T04:29:31;23.03;;;4.43;;
3795;SDS011;1913;50.660;7.834;2023-01-05T04:31:56;24.73;;;4.70;;
3795;SDS011;1913;50.660;7.834;2023-01-05T04:34:22;17.83;;;3.50;;
3795;SDS011;1913;50.660;7.834;2023-01-05T04:36:47;27.77;;;4.23;;
3795;SDS011;1913;50.660;7.834;2023-01-05T04:39:13;25.60;;;4.57;;
3795;SDS011;1913;50.660;7.834;2023-01-05T04:41:39;22.20;;;4.97;;
3795;SDS011;1913;50.660;7.834;2023-01-05T04:44:05;28.07;;;4.23;;
3795;SDS011;1913;50.660;7.834;2023-01-05T04:46:31;20.73;;;4.70;;
3795;SDS011;1913;50.660;7.834;2023-01-05T04:48:57;20.10;;;4.10;;
3795;SDS011;1913;50.660;7.834;2023-01-05T04:51:23;29.33;;;4.93;;
3795;SDS011;1913;50.660;7.834;2023-01-05T04:53:48;15.17;;;4.53;;
3795;SDS011;1913;50.660;7.834;2023-01-05T04:56:14;19.37;;;4.03;;
3795;SDS011;1913;50.660;7.834;2023-01-05T04:58:40;32.03;;;4.60;;
3795;SDS011;1913;50.660;7.834;2023-01-05T05:01:05;19.67;;;4.33;;
3795;SDS011;1913;50.660;7.834;2023-01-05T05:03:31;16.80;;;3.90;;
3795;SDS011;1913;50.660;7.834;2023-01-05T05:05:56;26.67;;;4.63;;
3795;SDS011;1913;50.660;7.834;2023-01-05T05:08:22;27.90;;;4.27;;
3795;SDS011;1913;50.660;7.834;2023-01-05T05:10:48;26.90;;;4.80;;
3795;SDS011;1913;50.660;7.834;2023-01-05T05:13:13;18.43;;;4.90;;
3795;SDS011;1913;50.660;7.834;2023-01-05T05:15:39;30.17;;;5.50;;
3795;SDS011;1913;50.660;7.834;2023-01-05T05:18:04;20.27;;;4.13;;
3795;SDS011;1913;50.660;7.834;2023-01-05T05:20:30;30.30;;;4.80;;
3795;SDS011;1913;50.660;7.834;2023-01-05T05:22:55;37.03;;;6.23;;
3795;SDS011;1913;50.660;7.834;2023-01-05T05:25:21;32.70;;;4.53;;
3795;SDS011;1913;50.660;7.834;2023-01-05T05:27:46;29.00;;;5.30;;
3795;SDS011;1913;50.660;7.834;2023-01-05T05:30:12;22.60;;;4.37;;
3795;SDS011;1913;50.660;7.834;2023-01-05T05:32:38;33.33;;;5.63;;
3795;SDS011;1913;50.660;7.834;2023-01-05T05:35:03;22.80;;;3.90;;
3795;SDS011;1913;50.660;7.834;2023-01-05T05:37:29;17.03;;;4.00;;
3795;SDS011;1913;50.660;7.834;2023-01-05T05:39:54;33.83;;;5.60;;
3795;SDS011;1913;50.660;7.834;2023-01-05T05:42:20;28.17;;;5.07;;
3795;SDS011;1913;50.660;7.834;2023-01-05T05:44:45;26.13;;;5.30;;
3795;SDS011;1913;50.660;7.834;2023-01-05T05:47:11;22.17;;;4.87;;
3795;SDS011;1913;50.660;7.834;2023-01-05T05:49:36;18.37;;;4.40;;
3795;SDS011;1913;50.660;7.834;2023-01-05T05:52:02;23.67;;;4.23;;
3795;SDS011;1913;50.660;7.834;2023-01-05T05:54:27;25.23;;;5.30;;
3795;SDS011;1913;50.660;7.834;2023-01-05T05:56:53;31.03;;;5.40;;
3795;SDS011;1913;50.660;7.834;2023-01-05T05:59:18;34.73;;;5.50;;
3795;SDS011;1913;50.660;7.834;2023-01-05T06:01:44;20.63;;;5.10;;
3795;SDS011;1913;50.660;7.834;2023-01-05T06:04:09;20.67;;;4.73;;
3795;SDS011;1913;50.660;7.834;2023-01-05T06:06:35;27.50;;;4.70;;
3795;SDS011;1913;50.660;7.834;2023-01-05T06:09:01;25.03;;;5.10;;
3795;SDS011;1913;50.660;7.834;2023-01-05T06:11:26;21.77;;;4.70;;
3795;SDS011;1913;50.660;7.834;2023-01-05T06:13:51;27.37;;;5.53;;
3795;SDS011;1913;50.660;7.834;2023-01-05T06:16:17;25.87;;;5.50;;
3795;SDS011;1913;50.660;7.834;2023-01-05T06:18:42;29.47;;;5.60;;
3795;SDS011;1913;50.660;7.834;2023-01-05T06:21:08;22.80;;;5.10;;
3795;SDS011;1913;50.660;7.834;2023-01-05T06:23:33;30.60;;;5.57;;
3795;SDS011;1913;50.660;7.834;2023-01-05T06:25:59;24.13;;;4.47;;
3795;SDS011;1913;50.660;7.834;2023-01-05T06:28:24;28.03;;;6.53;;
3795;SDS011;1913;50.660;7.834;2023-01-05T06:30:50;23.47;;;4.60;;
3795;SDS011;1913;50.660;7.834;2023-01-05T06:33:15;25.87;;;5.70;;
3795;SDS011;1913;50.660;7.834;2023-01-05T06:35:41;28.50;;;5.33;;
3795;SDS011;1913;50.660;7.834;2023-01-05T06:38:06;32.97;;;4.57;;
3795;SDS011;1913;50.660;7.834;2023-01-05T06:40:32;30.07;;;5.80;;
3795;SDS011;1913;50.660;7.834;2023-01-05T06:42:57;36.03;;;6.27;;
3795;SDS011;1913;50.660;7.834;2023-01-05T06:45:23;23.27;;;4.83;;
3795;SDS011;1913;50.660;7.834;2023-01-05T06:47:48;21.80;;;4.93;;
3795;SDS011;1913;50.660;7.834;2023-01-05T06:50:14;32.70;;;5.03;;
3795;SDS011;1913;50.660;7.834;2023-01-05T06:52:39;32.10;;;5.13;;
3795;SDS011;1913;50.660;7.834;2023-01-05T06:55:06;33.77;;;5.77;;
3795;SDS011;1913;50.660;7.834;2023-01-05T06:57:33;34.73;;;6.93;;
3795;SDS011;1913;50.660;7.834;2023-01-05T07:00:01;29.63;;;6.57;;
3795;SDS011;1913;50.660;7.834;2023-01-05T07:02:28;33.27;;;5.50;;
3795;SDS011;1913;50.660;7.834;2023-01-05T07:04:54;41.77;;;6.50;;
3795;SDS011;1913;50.660;7.834;2023-01-05T07:07:19;33.20;;;6.47;;
3795;SDS011;1913;50.660;7.834;2023-01-05T07:09:45;35.60;;;6.30;;
3795;SDS011;1913;50.660;7.834;2023-01-05T07:12:13;32.90;;;5.13;;
3795;SDS011;1913;50.660;7.834;2023-01-05T07:14:39;28.37;;;5.10;;
3795;SDS011;1913;50.660;7.834;2023-01-05T07:17:04;35.93;;;5.77;;
3795;SDS011;1913;50.660;7.834;2023-01-05T07:19:30;26.10;;;5.30;;
3795;SDS011;1913;50.660;7.834;2023-01-05T07:21:59;30.30;;;6.40;;
3795;SDS011;1913;50.660;7.834;2023-01-05T07:24:25;37.23;;;5.93;;
3795;SDS011;1913;50.660;7.834;2023-01-05T07:26:52;28.17;;;5.93;;
3795;SDS011;1913;50.660;7.834;2023-01-05T07:29:27;33.50;;;5.17;;
3795;SDS011;1913;50.660;7.834;2023-01-05T07:32:04;28.80;;;4.77;;
3795;SDS011;1913;50.660;7.834;2023-01-05T07:34:30;22.33;;;5.53;;
3795;SDS011;1913;50.660;7.834;2023-01-05T07:36:55;26.20;;;4.93;;
3795;SDS011;1913;50.660;7.834;2023-01-05T07:39:21;20.17;;;4.77;;
3795;SDS011;1913;50.660;7.834;2023-01-05T07:41:47;22.50;;;4.63;;
3795;SDS011;1913;50.660;7.834;2023-01-05T07:44:12;24.07;;;4.90;;
3795;SDS011;1913;50.660;7.834;2023-01-05T07:46:38;25.83;;;5.80;;
3795;SDS011;1913;50.660;7.834;2023-01-05T07:49:04;29.17;;;5.17;;
3795;SDS011;1913;50.660;7.834;2023-01-05T07:51:29;30.43;;;5.50;;
3795;SDS011;1913;50.660;7.834;2023-01-05T07:53:55;29.87;;;5.43;;
3795;SDS011;1913;50.660;7.834;2023-01-05T07:56:20;26.10;;;4.90;;
3795;SDS011;1913;50.660;7.834;2023-01-05T07:58:46;29.10;;;4.80;;
3795;SDS011;1913;50.660;7.834;2023-01-05T08:01:12;26.13;;;4.43;;
3795;SDS011;1913;50.660;7.834;2023-01-05T08:03:39;28.97;;;5.50;;
3795;SDS011;1913;50.660;7.834;2023-01-05T08:06:06;27.37;;;5.20;;
3795;SDS011;1913;50.660;7.834;2023-01-05T08:08:34;32.83;;;5.67;;
3795;SDS011;1913;50.660;7.834;2023-01-05T08:11:02;30.07;;;5.90;;
3795;SDS011;1913;50.660;7.834;2023-01-05T08:13:29;23.70;;;5.20;;
3795;SDS011;1913;50.660;7.834;2023-01-05T08:16:12;25.17;;;5.90;;
3795;SDS011;1913;50.660;7.834;2023-01-05T08:18:38;21.70;;;4.70;;
3795;SDS011;1913;50.660;7.834;2023-01-05T08:21:03;23.93;;;5.23;;
3795;SDS011;1913;50.660;7.834;2023-01-05T08:23:30;28.43;;;5.87;;
3795;SDS011;1913;50.660;7.834;2023-01-05T08:25:56;34.47;;;6.07;;
3795;SDS011;1913;50.660;7.834;2023-01-05T08:28:26;34.03;;;6.03;;
3795;SDS011;1913;50.660;7.834;2023-01-05T08:30:52;29.77;;;5.90;;
3795;SDS011;1913;50.660;7.834;2023-01-05T08:33:17;28.70;;;6.03;;
3795;SDS011;1913;50.660;7.834;2023-01-05T08:35:43;24.03;;;5.50;;
3795;SDS011;1913;50.660;7.834;2023-01-05T08:38:09;33.10;;;6.33;;
3795;SDS011;1913;50.660;7.834;2023-01-05T08:40:36;33.63;;;5.70;;
3795;SDS011;1913;50.660;7.834;2023-01-05T08:43:03;27.80;;;5.50;;
3795;SDS011;1913;50.660;7.834;2023-01-05T08:45:30;37.10;;;6.67;;
3795;SDS011;1913;50.660;7.834;2023-01-05T08:47:56;35.20;;;6.10;;
3795;SDS011;1913;50.660;7.834;2023-01-05T08:50:22;44.63;;;6.53;;
3795;SDS011;1913;50.660;7.834;2023-01-05T08:52:47;34.00;;;6.50;;
3795;SDS011;1913;50.660;7.834;2023-01-05T08:55:12;30.07;;;5.57;;
3795;SDS011;1913;50.660;7.834;2023-01-05T08:57:38;35.33;;;6.17;;
3795;SDS011;1913;50.660;7.834;2023-01-05T09:00:04;37.67;;;7.10;;
3795;SDS011;1913;50.660;7.834;2023-01-05T09:02:30;41.07;;;6.20;;
3795;SDS011;1913;50.660;7.834;2023-01-05T09:04:55;28.33;;;6.10;;
3795;SDS011;1913;50.660;7.834;2023-01-05T09:07:21;36.57;;;7.40;;
3795;SDS011;1913;50.660;7.834;2023-01-05T09:09:47;37.13;;;6.30;;
3795;SDS011;1913;50.660;7.834;2023-01-05T09:12:12;23.03;;;5.10;;
3795;SDS011;1913;50.660;7.834;2023-01-05T09:14:37;18.83;;;5.73;;
3795;SDS011;1913;50.660;7.834;2023-01-05T09:17:03;26.83;;;5.40;;
3795;SDS011;1913;50.660;7.834;2023-01-05T09:19:28;38.87;;;5.93;;
3795;SDS011;1913;50.660;7.834;2023-01-05T09:21:54;33.43;;;5.60;;
3795;SDS011;1913;50.660;7.834;2023-01-05T09:24:20;22.93;;;6.47;;
3795;SDS011;1913;50.660;7.834;2023-01-05T09:26:45;31.47;;;6.43;;
3795;SDS011;1913;50.660;7.834;2023-01-05T09:29:11;35.07;;;6.13;;
3795;SDS011;1913;50.660;7.834;2023-01-05T09:31:38;33.00;;;6.20;;
3795;SDS011;1913;50.660;7.834;2023-01-05T09:34:05;27.27;;;6.10;;
3795;SDS011;1913;50.660;7.834;2023-01-05T09:36:31;29.17;;;5.83;;
3795;SDS011;1913;50.660;7.834;2023-01-05T09:38:56;32.03;;;5.50;;
3795;SDS011;1913;50.660;7.834;2023-01-05T09:41:23;26.17;;;6.47;;
3795;SDS011;1913;50.660;7.834;2023-01-05T09:43:57;32.87;;;6.07;;
3795;SDS011;1913;50.660;7.834;2023-01-05T09:46:29;28.30;;;7.40;;
3795;SDS011;1913;50.660;7.834;2023-01-05T09:48:59;25.27;;;5.60;;
3795;SDS011;1913;50.660;7.834;2023-01-05T09:51:27;32.03;;;5.60;;
3795;SDS011;1913;50.660;7.834;2023-01-05T09:53:54;45.30;;;7.33;;
3795;SDS011;1913;50.660;7.834;2023-01-05T09:56:30;36.30;;;6.50;;
3795;SDS011;1913;50.660;7.834;2023-01-05T09:59:45;39.13;;;7.17;;
3795;SDS011;1913;50.660;7.834;2023-01-05T10:01:49;32.20;;;6.00;;
3795;SDS011;1913;50.660;7.834;2023-01-05T10:04:26;30.13;;;5.80;;
3795;SDS011;1913;50.660;7.834;2023-01-05T10:07:01;38.00;;;6.40;;
3795;SDS011;1913;50.660;7.834;2023-01-05T10:09:31;30.50;;;5.77;;
3795;SDS011;1913;50.660;7.834;2023-01-05T10:15:06;45.53;;;6.97;;
3795;SDS011;1913;50.660;7.834;2023-01-05T10:17:36;31.27;;;6.70;;
3795;SDS011;1913;50.660;7.834;2023-01-05T10:25:58;35.83;;;8.33;;
3795;SDS011;1913;50.660;7.834;2023-01-05T10:28:46;42.17;;;7.17;;
3795;SDS011;1913;50.660;7.834;2023-01-05T10:33:50;32.63;;;7.37;;
3795;SDS011;1913;50.660;7.834;2023-01-05T10:39:26;27.30;;;5.00;;
3795;SDS011;1913;50.660;7.834;2023-01-05T10:42:21;32.37;;;7.07;;
3795;SDS011;1913;50.660;7.834;2023-01-05T10:45:14;35.43;;;5.87;;
3795;SDS011;1913;50.660;7.834;2023-01-05T10:47:42;27.90;;;6.93;;
3795;SDS011;1913;50.660;7.834;2023-01-05T10:53:18;27.80;;;5.70;;
3795;SDS011;1913;50.660;7.834;2023-01-05T10:58:31;34.50;;;7.03;;
3795;SDS011;1913;50.660;7.834;2023-01-05T11:01:00;33.10;;;6.43;;
3795;SDS011;1913;50.660;7.834;2023-01-05T11:03:34;35.30;;;5.67;;
3795;SDS011;1913;50.660;7.834;2023-01-05T11:06:05;32.27;;;5.93;;
3795;SDS011;1913;50.660;7.834;2023-01-05T11:08:33;30.70;;;6.03;;
3795;SDS011;1913;50.660;7.834;2023-01-05T11:11:03;27.97;;;5.97;;
3795;SDS011;1913;50.660;7.834;2023-01-05T11:13:36;46.50;;;6.40;;
3795;SDS011;1913;50.660;7.834;2023-01-05T11:19:15;32.53;;;5.93;;
3795;SDS011;1913;50.660;7.834;2023-01-05T11:21:43;32.63;;;6.00;;
3795;SDS011;1913;50.660;7.834;2023-01-05T11:26:48;31.33;;;5.60;;
3795;SDS011;1913;50.660;7.834;2023-01-05T11:29:18;30.00;;;5.87;;
3795;SDS011;1913;50.660;7.834;2023-01-05T11:36:57;32.33;;;5.80;;
3795;SDS011;1913;50.660;7.834;2023-01-05T11:45:03;25.63;;;5.90;;
3795;SDS011;1913;50.660;7.834;2023-01-05T11:52:32;40.77;;;6.50;;
3795;SDS011;1913;50.660;7.834;2023-01-05T11:57:54;37.27;;;5.57;;
3795;SDS011;1913;50.660;7.834;2023-01-05T12:00:59;29.63;;;5.27;;
3795;SDS011;1913;50.660;7.834;2023-01-05T12:17:02;19.07;;;4.63;;
3795;SDS011;1913;50.660;7.834;2023-01-05T12:22:38;20.93;;;4.83;;
3795;SDS011;1913;50.660;7.834;2023-01-05T12:47:59;26.73;;;4.43;;
3795;SDS011;1913;50.660;7.834;2023-01-05T12:50:37;19.90;;;4.77;;
3795;SDS011;1913;50.660;7.834;2023-01-05T12:53:10;17.93;;;4.80;;
3795;SDS011;1913;50.660;7.834;2023-01-05T12:55:50;20.60;;;7.00;;
3795;SDS011;1913;50.660;7.834;2023-01-05T13:00:56;18.00;;;5.13;;
3795;SDS011;1913;50.660;7.834;2023-01-05T13:03:39;22.47;;;5.17;;
3795;SDS011;1913;50.660;7.834;2023-01-05T13:06:12;21.20;;;5.43;;
3795;SDS011;1913;50.660;7.834;2023-01-05T13:11:18;25.77;;;7.17;;
3795;SDS011;1913;50.660;7.834;2023-01-05T13:13:52;14.13;;;4.00;;
3795;SDS011;1913;50.660;7.834;2023-01-05T13:16:39;23.80;;;4.73;;
3795;SDS011;1913;50.660;7.834;2023-01-05T13:19:17;13.80;;;5.00;;
3795;SDS011;1913;50.660;7.834;2023-01-05T13:21:49;20.30;;;5.33;;
3795;SDS011;1913;50.660;7.834;2023-01-05T13:24:18;17.63;;;4.60;;
3795;SDS011;1913;50.660;7.834;2023-01-05T13:26:50;16.73;;;4.07;;
3795;SDS011;1913;50.660;7.834;2023-01-05T13:29:26;21.60;;;3.73;;
3795;SDS011;1913;50.660;7.834;2023-01-05T13:32:05;15.20;;;4.57;;
3795;SDS011;1913;50.660;7.834;2023-01-05T13:49:18;26.00;;;8.70;;
3795;SDS011;1913;50.660;7.834;2023-01-05T13:52:03;22.80;;;5.67;;
3795;SDS011;1913;50.660;7.834;2023-01-05T13:54:34;21.80;;;6.90;;
3795;SDS011;1913;50.660;7.834;2023-01-05T13:57:08;29.07;;;8.43;;
3795;SDS011;1913;50.660;7.834;2023-01-05T13:59:39;15.93;;;4.40;;
3795;SDS011;1913;50.660;7.834;2023-01-05T14:02:24;22.87;;;5.73;;
3795;SDS011;1913;50.660;7.834;2023-01-05T14:04:53;15.93;;;4.47;;
3795;SDS011;1913;50.660;7.834;2023-01-05T14:07:18;23.33;;;4.80;;
3795;SDS011;1913;50.660;7.834;2023-01-05T14:36:58;21.93;;;5.10;;
3795;SDS011;1913;50.660;7.834;2023-01-05T14:39:21;21.17;;;5.13;;
3795;SDS011;1913;50.660;7.834;2023-01-05T14:42:04;16.20;;;4.40;;
3795;SDS011;1913;50.660;7.834;2023-01-05T14:47:46;20.10;;;5.30;;
3795;SDS011;1913;50.660;7.834;2023-01-05T14:57:52;16.73;;;4.53;;
3795;SDS011;1913;50.660;7.834;2023-01-05T15:06:05;74.73;;;26.27;;
3795;SDS011;1913;50.660;7.834;2023-01-05T15:11:47;34.80;;;11.67;;
3795;SDS011;1913;50.660;7.834;2023-01-05T15:17:18;24.23;;;8.40;;
3795;SDS011;1913;50.660;7.834;2023-01-05T15:28:02;30.53;;;6.63;;
3795;SDS011;1913;50.660;7.834;2023-01-05T15:33:39;25.13;;;7.93;;
3795;SDS011;1913;50.660;7.834;2023-01-05T15:36:33;24.77;;;5.50;;
3795;SDS011;1913;50.660;7.834;2023-01-05T15:39:20;41.50;;;8.53;;
3795;SDS011;1913;50.660;7.834;2023-01-05T15:41:47;30.03;;;8.50;;
3795;SDS011;1913;50.660;7.834;2023-01-05T15:44:15;23.23;;;7.63;;
3795;SDS011;1913;50.660;7.834;2023-01-05T15:46:43;28.13;;;8.57;;
3795;SDS011;1913;50.660;7.834;2023-01-05T15:49:17;32.43;;;9.97;;
3795;SDS011;1913;50.660;7.834;2023-01-05T15:51:49;31.20;;;12.70;;
3795;SDS011;1913;50.660;7.834;2023-01-05T15:54:21;50.00;;;20.30;;
3795;SDS011;1913;50.660;7.834;2023-01-05T15:56:48;65.03;;;23.57;;
3795;SDS011;1913;50.660;7.834;2023-01-05T16:01:57;41.77;;;11.87;;
3795;SDS011;1913;50.660;7.834;2023-01-05T16:04:23;21.60;;;5.50;;
3795;SDS011;1913;50.660;7.834;2023-01-05T16:06:57;46.33;;;13.10;;
3795;SDS011;1913;50.660;7.834;2023-01-05T16:09:34;44.23;;;15.73;;
3795;SDS011;1913;50.660;7.834;2023-01-05T16:12:18;41.07;;;14.80;;
3795;SDS011;1913;50.660;7.834;2023-01-05T16:14:57;37.47;;;10.87;;
3795;SDS011;1913;50.660;7.834;2023-01-05T16:17:26;27.90;;;8.53;;
3795;SDS011;1913;50.660;7.834;2023-01-05T16:19:58;21.83;;;6.80;;
3795;SDS011;1913;50.660;7.834;2023-01-05T16:25:23;30.00;;;9.50;;
3795;SDS011;1913;50.660;7.834;2023-01-05T16:27:52;21.57;;;7.07;;
3795;SDS011;1913;50.660;7.834;2023-01-05T16:33:03;23.80;;;5.20;;
3795;SDS011;1913;50.660;7.834;2023-01-05T16:38:12;20.27;;;5.43;;
3795;SDS011;1913;50.660;7.834;2023-01-05T16:43:17;23.30;;;5.80;;
3795;SDS011;1913;50.660;7.834;2023-01-05T16:45:46;31.23;;;4.33;;
3795;SDS011;1913;50.660;7.834;2023-01-05T16:51:04;23.60;;;4.30;;
3795;SDS011;1913;50.660;7.834;2023-01-05T16:53:31;23.50;;;4.23;;
3795;SDS011;1913;50.660;7.834;2023-01-05T16:55:59;21.60;;;5.53;;
3795;SDS011;1913;50.660;7.834;2023-01-05T17:01:13;20.53;;;5.00;;
3795;SDS011;1913;50.660;7.834;2023-01-05T17:03:47;17.03;;;3.93;;
3795;SDS011;1913;50.660;7.834;2023-01-05T17:08:47;23.90;;;5.10;;
3795;SDS011;1913;50.660;7.834;2023-01-05T17:11:13;28.97;;;5.20;;
3795;SDS011;1913;50.660;7.834;2023-01-05T17:13:47;28.00;;;5.53;;
3795;SDS011;1913;50.660;7.834;2023-01-05T17:16:16;23.73;;;5.57;;
3795;SDS011;1913;50.660;7.834;2023-01-05T17:18:43;27.07;;;5.90;;
3795;SDS011;1913;50.660;7.834;2023-01-05T17:21:09;36.13;;;6.77;;
3795;SDS011;1913;50.660;7.834;2023-01-05T17:23:46;31.07;;;5.10;;
3795;SDS011;1913;50.660;7.834;2023-01-05T17:26:27;32.53;;;5.83;;
3795;SDS011;1913;50.660;7.834;2023-01-05T17:28:58;30.70;;;6.70;;
3795;SDS011;1913;50.660;7.834;2023-01-05T17:31:24;33.57;;;5.80;;
3795;SDS011;1913;50.660;7.834;2023-01-05T17:33:50;26.20;;;6.00;;
3795;SDS011;1913;50.660;7.834;2023-01-05T17:36:15;30.63;;;6.17;;
3795;SDS011;1913;50.660;7.834;2023-01-05T17:38:42;37.30;;;6.37;;
3795;SDS011;1913;50.660;7.834;2023-01-05T17:41:08;18.97;;;6.00;;
3795;SDS011;1913;50.660;7.834;2023-01-05T17:43:36;29.30;;;7.10;;
3795;SDS011;1913;50.660;7.834;2023-01-05T17:46:01;35.23;;;8.40;;
3795;SDS011;1913;50.660;7.834;2023-01-05T17:48:27;32.13;;;6.10;;
3795;SDS011;1913;50.660;7.834;2023-01-05T17:50:52;23.80;;;5.70;;
3795;SDS011;1913;50.660;7.834;2023-01-05T17:53:18;33.93;;;6.80;;
3795;SDS011;1913;50.660;7.834;2023-01-05T17:55:43;38.97;;;7.00;;
3795;SDS011;1913;50.660;7.834;2023-01-05T17:58:10;16.33;;;5.87;;
3795;SDS011;1913;50.660;7.834;2023-01-05T18:00:37;27.13;;;6.20;;
3795;SDS011;1913;50.660;7.834;2023-01-05T18:03:09;28.37;;;5.47;;
3795;SDS011;1913;50.660;7.834;2023-01-05T18:05:40;30.63;;;6.60;;
3795;SDS011;1913;50.660;7.834;2023-01-05T18:08:07;32.60;;;6.10;;
3795;SDS011;1913;50.660;7.834;2023-01-05T18:10:34;30.87;;;5.37;;
3795;SDS011;1913;50.660;7.834;2023-01-05T18:13:00;34.67;;;6.07;;
3795;SDS011;1913;50.660;7.834;2023-01-05T18:15:26;24.90;;;5.60;;
3795;SDS011;1913;50.660;7.834;2023-01-05T18:17:54;24.93;;;5.00;;
3795;SDS011;1913;50.660;7.834;2023-01-05T18:20:21;29.70;;;6.67;;
3795;SDS011;1913;50.660;7.834;2023-01-05T18:22:46;31.57;;;6.30;;
3795;SDS011;1913;50.660;7.834;2023-01-05T18:25:12;29.30;;;5.50;;
3795;SDS011;1913;50.660;7.834;2023-01-05T18:27:38;20.00;;;5.90;;
3795;SDS011;1913;50.660;7.834;2023-01-05T18:30:04;27.47;;;5.90;;
3795;SDS011;1913;50.660;7.834;2023-01-05T18:32:32;31.33;;;6.40;;
3795;SDS011;1913;50.660;7.834;2023-01-05T18:34:57;36.63;;;6.57;;
3795;SDS011;1913;50.660;7.834;2023-01-05T18:37:22;31.70;;;7.60;;
3795;SDS011;1913;50.660;7.834;2023-01-05T18:39:48;50.60;;;8.40;;
3795;SDS011;1913;50.660;7.834;2023-01-05T18:42:14;37.13;;;7.60;;
3795;SDS011;1913;50.660;7.834;2023-01-05T18:44:39;43.43;;;9.60;;
3795;SDS011;1913;50.660;7.834;2023-01-05T18:47:04;43.70;;;9.13;;
3795;SDS011;1913;50.660;7.834;2023-01-05T18:49:30;35.90;;;7.63;;
3795;SDS011;1913;50.660;7.834;2023-01-05T18:51:56;32.50;;;9.63;;
3795;SDS011;1913;50.660;7.834;2023-01-05T18:54:21;35.87;;;7.60;;